sensor_id;sensor_type;location;lat;lon;timestamp;temperature;humidity
1351;DHT22;669;50.206;9.998;2023-12-14T00:00:23;3.00;47.90
1351;DHT22;669;50.206;9.998;2023-12-14T00:02:51;3.00;47.90
1351;DHT22;669;50.206;9.998;2023-12-14T00:05:19;3.00;48.80
1351;DHT22;669;50.206;9.998;2023-12-14T00:07:47;3.00;49.20
1351;DHT22;669;50.206;9.998;2023-12-14T00:10:15;3.10;49.90
1351;DHT22;669;50.206;9.998;2023-12-14T00:12:46;3.10;49.80
1351;DHT22;669;50.206;9.998;2023-12-14T00:15:15;3.10;49.60
1351;DHT22;669;50.206;9.998;2023-12-14T00:17:43;3.20;50.50
1351;DHT22;669;50.206;9.998;2023-12-14T00:20:11;3.20;49.50
1351;DHT22;669;50.206;9.998;2023-12-14T00:22:41;3.20;49.50
1351;DHT22;669;50.206;9.998;2023-12-14T00:25:09;3.20;49.20
1351;DHT22;669;50.206;9.998;2023-12-14T00:27:37;3.20;48.50
1351;DHT22;669;50.206;9.998;2023-12-14T00:30:08;3.10;47.70
1351;DHT22;669;50.206;9.998;2023-12-14T00:32:36;3.10;47.40
1351;DHT22;669;50.206;9.998;2023-12-14T00:35:04;3.10;47.70
1351;DHT22;669;50.206;9.998;2023-12-14T00:37:32;3.00;47.60
1351;DHT22;669;50.206;9.998;2023-12-14T00:40:01;3.00;47.70
1351;DHT22;669;50.206;9.998;2023-12-14T00:42:30;3.00;47.60
1351;DHT22;669;50.206;9.998;2023-12-14T00:44:58;3.00;47.80
1351;DHT22;669;50.206;9.998;2023-12-14T00:47:27;2.90;47.70
1351;DHT22;669;50.206;9.998;2023-12-14T00:49:55;2.90;46.90
1351;DHT22;669;50.206;9.998;2023-12-14T00:52:23;2.80;45.50
1351;DHT22;669;50.206;9.998;2023-12-14T00:54:51;2.70;45.40
1351;DHT22;669;50.206;9.998;2023-12-14T00:57:19;2.60;45.70
1351;DHT22;669;50.206;9.998;2023-12-14T00:59:47;2.60;45.30
1351;DHT22;669;50.206;9.998;2023-12-14T01:02:15;2.50;46.10
1351;DHT22;669;50.206;9.998;2023-12-14T01:04:45;2.50;45.60
1351;DHT22;669;50.206;9.998;2023-12-14T01:07:13;2.40;46.70
1351;DHT22;669;50.206;9.998;2023-12-14T01:09:41;2.60;47.50
1351;DHT22;669;50.206;9.998;2023-12-14T01:12:09;2.50;47.40
1351;DHT22;669;50.206;9.998;2023-12-14T01:14:37;2.40;46.80
1351;DHT22;669;50.206;9.998;2023-12-14T01:17:05;2.40;47.10
1351;DHT22;669;50.206;9.998;2023-12-14T01:19:33;2.40;47.00
1351;DHT22;669;50.206;9.998;2023-12-14T01:22:02;2.40;47.70
1351;DHT22;669;50.206;9.998;2023-12-14T01:24:30;2.40;46.80
1351;DHT22;669;50.206;9.998;2023-12-14T01:26:58;2.40;46.80
1351;DHT22;669;50.206;9.998;2023-12-14T01:29:26;2.30;45.80
1351;DHT22;669;50.206;9.998;2023-12-14T01:31:54;2.30;46.40
1351;DHT22;669;50.206;9.998;2023-12-14T01:34:22;2.30;46.90
1351;DHT22;669;50.206;9.998;2023-12-14T01:36:50;2.30;47.40
1351;DHT22;669;50.206;9.998;2023-12-14T01:39:19;2.30;47.40
1351;DHT22;669;50.206;9.998;2023-12-14T01:41:47;2.30;47.40
1351;DHT22;669;50.206;9.998;2023-12-14T01:44:15;2.30;47.70
1351;DHT22;669;50.206;9.998;2023-12-14T01:46:44;2.40;48.30
1351;DHT22;669;50.206;9.998;2023-12-14T01:49:11;2.40;48.00
1351;DHT22;669;50.206;9.998;2023-12-14T01:51:40;2.50;48.20
1351;DHT22;669;50.206;9.998;2023-12-14T01:54:08;2.50;48.30
1351;DHT22;669;50.206;9.998;2023-12-14T01:56:37;2.60;48.40
1351;DHT22;669;50.206;9.998;2023-12-14T01:59:05;2.60;48.10
1351;DHT22;669;50.206;9.998;2023-12-14T02:01:38;2.70;48.00
1351;DHT22;669;50.206;9.998;2023-12-14T02:04:07;2.60;46.30
1351;DHT22;669;50.206;9.998;2023-12-14T02:06:36;2.50;45.30
1351;DHT22;669;50.206;9.998;2023-12-14T02:09:04;2.50;45.70
1351;DHT22;669;50.206;9.998;2023-12-14T02:11:32;2.50;46.20
1351;DHT22;669;50.206;9.998;2023-12-14T02:14:05;2.50;45.90
1351;DHT22;669;50.206;9.998;2023-12-14T02:16:33;2.50;47.10
1351;DHT22;669;50.206;9.998;2023-12-14T02:19:01;2.60;48.50
1351;DHT22;669;50.206;9.998;2023-12-14T02:21:29;2.70;49.10
1351;DHT22;669;50.206;9.998;2023-12-14T02:23:58;2.70;49.20
1351;DHT22;669;50.206;9.998;2023-12-14T02:26:26;2.80;49.60
1351;DHT22;669;50.206;9.998;2023-12-14T02:28:54;2.80;48.80
1351;DHT22;669;50.206;9.998;2023-12-14T02:31:23;2.90;49.20
1351;DHT22;669;50.206;9.998;2023-12-14T02:33:51;2.90;49.30
1351;DHT22;669;50.206;9.998;2023-12-14T02:36:19;3.00;49.50
1351;DHT22;669;50.206;9.998;2023-12-14T02:38:47;3.00;49.60
1351;DHT22;669;50.206;9.998;2023-12-14T02:41:16;3.00;49.20
1351;DHT22;669;50.206;9.998;2023-12-14T02:43:44;3.10;49.20
1351;DHT22;669;50.206;9.998;2023-12-14T02:46:12;3.10;48.70
1351;DHT22;669;50.206;9.998;2023-12-14T02:48:42;3.10;48.70
1351;DHT22;669;50.206;9.998;2023-12-14T02:51:13;3.00;47.30
1351;DHT22;669;50.206;9.998;2023-12-14T02:53:42;3.00;47.90
1351;DHT22;669;50.206;9.998;2023-12-14T02:56:10;3.00;47.60
1351;DHT22;669;50.206;9.998;2023-12-14T02:58:40;3.00;47.50
1351;DHT22;669;50.206;9.998;2023-12-14T03:01:08;3.00;47.70
1351;DHT22;669;50.206;9.998;2023-12-14T03:03:38;3.00;48.20
1351;DHT22;669;50.206;9.998;2023-12-14T03:06:06;3.00;48.70
1351;DHT22;669;50.206;9.998;2023-12-14T03:08:34;3.10;49.90
1351;DHT22;669;50.206;9.998;2023-12-14T03:11:03;3.10;49.40
1351;DHT22;669;50.206;9.998;2023-12-14T03:13:31;3.10;49.70
1351;DHT22;669;50.206;9.998;2023-12-14T03:16:00;3.20;49.60
1351;DHT22;669;50.206;9.998;2023-12-14T03:18:28;3.20;49.10
1351;DHT22;669;50.206;9.998;2023-12-14T03:20:56;3.20;48.60
1351;DHT22;669;50.206;9.998;2023-12-14T03:23:24;3.20;48.60
1351;DHT22;669;50.206;9.998;2023-12-14T03:25:52;3.20;49.00
1351;DHT22;669;50.206;9.998;2023-12-14T03:28:20;3.20;49.40
1351;DHT22;669;50.206;9.998;2023-12-14T03:30:48;3.20;49.90
1351;DHT22;669;50.206;9.998;2023-12-14T03:33:18;3.30;49.80
1351;DHT22;669;50.206;9.998;2023-12-14T03:35:46;3.30;49.50
1351;DHT22;669;50.206;9.998;2023-12-14T03:38:14;3.30;49.60
1351;DHT22;669;50.206;9.998;2023-12-14T03:40:42;3.30;49.40
1351;DHT22;669;50.206;9.998;2023-12-14T03:43:10;3.30;48.90
1351;DHT22;669;50.206;9.998;2023-12-14T03:45:38;3.30;49.00
1351;DHT22;669;50.206;9.998;2023-12-14T03:48:06;3.30;49.10
1351;DHT22;669;50.206;9.998;2023-12-14T03:50:35;3.30;49.20
1351;DHT22;669;50.206;9.998;2023-12-14T03:53:03;3.20;48.70
1351;DHT22;669;50.206;9.998;2023-12-14T03:55:32;3.30;49.20
1351;DHT22;669;50.206;9.998;2023-12-14T03:58:00;3.30;49.50
1351;DHT22;669;50.206;9.998;2023-12-14T04:00:28;3.30;49.70
1351;DHT22;669;50.206;9.998;2023-12-14T04:02:56;3.30;49.50
1351;DHT22;669;50.206;9.998;2023-12-14T04:05:24;3.30;49.80
1351;DHT22;669;50.206;9.998;2023-12-14T04:07:54;3.30;49.40
1351;DHT22;669;50.206;9.998;2023-12-14T04:10:22;3.30;50.00
1351;DHT22;669;50.206;9.998;2023-12-14T04:12:50;3.40;49.50
1351;DHT22;669;50.206;9.998;2023-12-14T04:15:18;3.30;49.90
1351;DHT22;669;50.206;9.998;2023-12-14T04:17:46;3.40;50.50
1351;DHT22;669;50.206;9.998;2023-12-14T04:20:14;3.40;51.30
1351;DHT22;669;50.206;9.998;2023-12-14T04:22:43;3.50;51.50
1351;DHT22;669;50.206;9.998;2023-12-14T04:25:13;3.60;52.00
1351;DHT22;669;50.206;9.998;2023-12-14T04:27:41;3.60;51.80
1351;DHT22;669;50.206;9.998;2023-12-14T04:30:09;3.60;51.20
1351;DHT22;669;50.206;9.998;2023-12-14T04:32:38;3.60;50.60
1351;DHT22;669;50.206;9.998;2023-12-14T04:35:07;3.60;51.30
1351;DHT22;669;50.206;9.998;2023-12-14T04:37:35;3.60;51.50
1351;DHT22;669;50.206;9.998;2023-12-14T04:40:05;3.60;52.30
1351;DHT22;669;50.206;9.998;2023-12-14T04:42:34;3.60;51.70
1351;DHT22;669;50.206;9.998;2023-12-14T04:45:03;3.70;52.00
1351;DHT22;669;50.206;9.998;2023-12-14T04:47:31;3.70;51.80
1351;DHT22;669;50.206;9.998;2023-12-14T04:50:00;3.70;52.00
1351;DHT22;669;50.206;9.998;2023-12-14T04:52:28;3.70;51.50
1351;DHT22;669;50.206;9.998;2023-12-14T04:54:56;3.70;52.10
1351;DHT22;669;50.206;9.998;2023-12-14T04:57:24;3.80;52.10
1351;DHT22;669;50.206;9.998;2023-12-14T04:59:53;3.70;51.80
1351;DHT22;669;50.206;9.998;2023-12-14T05:02:21;3.80;51.80
1351;DHT22;669;50.206;9.998;2023-12-14T05:04:49;3.70;51.70
1351;DHT22;669;50.206;9.998;2023-12-14T05:07:17;3.80;51.80
1351;DHT22;669;50.206;9.998;2023-12-14T05:09:45;3.70;51.70
1351;DHT22;669;50.206;9.998;2023-12-14T05:12:13;3.80;51.90
1351;DHT22;669;50.206;9.998;2023-12-14T05:14:41;3.80;52.30
1351;DHT22;669;50.206;9.998;2023-12-14T05:17:10;3.80;52.80
1351;DHT22;669;50.206;9.998;2023-12-14T05:19:38;3.90;52.80
1351;DHT22;669;50.206;9.998;2023-12-14T05:22:06;3.90;52.60
1351;DHT22;669;50.206;9.998;2023-12-14T05:24:34;3.90;52.40
1351;DHT22;669;50.206;9.998;2023-12-14T05:27:02;3.80;50.90
1351;DHT22;669;50.206;9.998;2023-12-14T05:29:30;3.70;50.70
1351;DHT22;669;50.206;9.998;2023-12-14T05:32:00;3.70;51.00
1351;DHT22;669;50.206;9.998;2023-12-14T05:34:29;3.70;51.60
1351;DHT22;669;50.206;9.998;2023-12-14T05:36:57;3.80;52.00
1351;DHT22;669;50.206;9.998;2023-12-14T05:39:25;3.80;52.10
1351;DHT22;669;50.206;9.998;2023-12-14T05:41:53;3.80;52.30
1351;DHT22;669;50.206;9.998;2023-12-14T05:44:21;3.80;52.40
1351;DHT22;669;50.206;9.998;2023-12-14T05:46:50;3.90;52.70
1351;DHT22;669;50.206;9.998;2023-12-14T05:49:18;3.90;52.80
1351;DHT22;669;50.206;9.998;2023-12-14T05:51:47;3.90;52.10
1351;DHT22;669;50.206;9.998;2023-12-14T05:54:15;3.80;51.30
1351;DHT22;669;50.206;9.998;2023-12-14T05:56:43;3.80;50.40
1351;DHT22;669;50.206;9.998;2023-12-14T05:59:11;3.70;50.70
1351;DHT22;669;50.206;9.998;2023-12-14T06:01:39;3.70;50.70
1351;DHT22;669;50.206;9.998;2023-12-14T06:04:07;3.70;50.70
1351;DHT22;669;50.206;9.998;2023-12-14T06:06:37;3.70;50.70
1351;DHT22;669;50.206;9.998;2023-12-14T06:09:06;3.70;51.00
1351;DHT22;669;50.206;9.998;2023-12-14T06:11:35;3.70;51.20
1351;DHT22;669;50.206;9.998;2023-12-14T06:14:04;3.70;51.90
1351;DHT22;669;50.206;9.998;2023-12-14T06:16:32;3.80;52.00
1351;DHT22;669;50.206;9.998;2023-12-14T06:19:00;3.80;51.90
1351;DHT22;669;50.206;9.998;2023-12-14T06:21:28;3.80;52.00
1351;DHT22;669;50.206;9.998;2023-12-14T06:23:56;3.90;52.10
1351;DHT22;669;50.206;9.998;2023-12-14T06:26:27;3.90;52.20
1351;DHT22;669;50.206;9.998;2023-12-14T06:28:55;3.90;52.90
1351;DHT22;669;50.206;9.998;2023-12-14T06:31:23;3.90;51.90
1351;DHT22;669;50.206;9.998;2023-12-14T06:33:51;3.90;51.40
1351;DHT22;669;50.206;9.998;2023-12-14T06:36:20;3.80;51.20
1351;DHT22;669;50.206;9.998;2023-12-14T06:38:48;3.80;50.90
1351;DHT22;669;50.206;9.998;2023-12-14T06:41:19;3.80;50.80
1351;DHT22;669;50.206;9.998;2023-12-14T06:43:49;3.80;50.80
1351;DHT22;669;50.206;9.998;2023-12-14T06:46:18;3.80;50.90
1351;DHT22;669;50.206;9.998;2023-12-14T06:48:46;3.80;51.80
1351;DHT22;669;50.206;9.998;2023-12-14T06:51:14;3.80;52.40
1351;DHT22;669;50.206;9.998;2023-12-14T06:53:43;3.80;51.80
1351;DHT22;669;50.206;9.998;2023-12-14T06:56:13;3.90;51.70
1351;DHT22;669;50.206;9.998;2023-12-14T06:58:43;3.80;51.10
1351;DHT22;669;50.206;9.998;2023-12-14T07:01:13;3.80;50.90
1351;DHT22;669;50.206;9.998;2023-12-14T07:03:42;3.80;50.90
1351;DHT22;669;50.206;9.998;2023-12-14T07:06:12;3.80;51.40
1351;DHT22;669;50.206;9.998;2023-12-14T07:08:41;3.80;51.60
1351;DHT22;669;50.206;9.998;2023-12-14T07:11:10;3.90;52.00
1351;DHT22;669;50.206;9.998;2023-12-14T07:13:38;3.90;52.10
1351;DHT22;669;50.206;9.998;2023-12-14T07:16:08;3.90;52.50
1351;DHT22;669;50.206;9.998;2023-12-14T07:18:38;4.00;52.80
1351;DHT22;669;50.206;9.998;2023-12-14T07:21:07;4.00;53.20
1351;DHT22;669;50.206;9.998;2023-12-14T07:23:36;4.10;53.30
1351;DHT22;669;50.206;9.998;2023-12-14T07:26:04;4.20;53.60
1351;DHT22;669;50.206;9.998;2023-12-14T07:28:34;4.20;53.40
1351;DHT22;669;50.206;9.998;2023-12-14T07:31:02;4.20;53.40
1351;DHT22;669;50.206;9.998;2023-12-14T07:33:30;4.30;53.50
1351;DHT22;669;50.206;9.998;2023-12-14T07:36:00;4.30;53.70
1351;DHT22;669;50.206;9.998;2023-12-14T07:38:28;4.40;54.10
1351;DHT22;669;50.206;9.998;2023-12-14T07:40:56;4.40;54.30
1351;DHT22;669;50.206;9.998;2023-12-14T07:43:24;4.40;54.40
1351;DHT22;669;50.206;9.998;2023-12-14T07:45:52;4.50;54.60
1351;DHT22;669;50.206;9.998;2023-12-14T07:48:20;4.50;54.60
1351;DHT22;669;50.206;9.998;2023-12-14T07:50:48;4.50;54.60
1351;DHT22;669;50.206;9.998;2023-12-14T07:53:18;4.60;54.90
1351;DHT22;669;50.206;9.998;2023-12-14T07:55:46;4.70;55.00
1351;DHT22;669;50.206;9.998;2023-12-14T07:58:13;4.70;55.20
1351;DHT22;669;50.206;9.998;2023-12-14T08:00:41;4.80;55.30
1351;DHT22;669;50.206;9.998;2023-12-14T08:03:09;4.70;54.50
1351;DHT22;669;50.206;9.998;2023-12-14T08:05:37;4.70;54.10
1351;DHT22;669;50.206;9.998;2023-12-14T08:08:05;4.60;54.20
1351;DHT22;669;50.206;9.998;2023-12-14T08:10:35;4.60;54.20
1351;DHT22;669;50.206;9.998;2023-12-14T08:13:03;4.70;54.50
1351;DHT22;669;50.206;9.998;2023-12-14T08:15:31;4.70;54.40
1351;DHT22;669;50.206;9.998;2023-12-14T08:17:59;4.70;54.60
1351;DHT22;669;50.206;9.998;2023-12-14T08:20:27;4.70;54.70
1351;DHT22;669;50.206;9.998;2023-12-14T08:22:55;4.70;54.90
1351;DHT22;669;50.206;9.998;2023-12-14T08:25:23;4.80;55.00
1351;DHT22;669;50.206;9.998;2023-12-14T08:27:53;4.80;55.30
1351;DHT22;669;50.206;9.998;2023-12-14T08:30:21;4.80;55.40
1351;DHT22;669;50.206;9.998;2023-12-14T08:32:50;4.90;55.60
1351;DHT22;669;50.206;9.998;2023-12-14T08:35:18;4.90;55.60
1351;DHT22;669;50.206;9.998;2023-12-14T08:37:46;5.00;55.80
1351;DHT22;669;50.206;9.998;2023-12-14T08:40:14;5.00;56.00
1351;DHT22;669;50.206;9.998;2023-12-14T08:42:42;5.10;56.40
1351;DHT22;669;50.206;9.998;2023-12-14T08:45:12;5.20;56.50
1351;DHT22;669;50.206;9.998;2023-12-14T08:47:40;5.30;56.60
1351;DHT22;669;50.206;9.998;2023-12-14T08:50:08;5.30;56.60
1351;DHT22;669;50.206;9.998;2023-12-14T08:52:36;5.40;56.60
1351;DHT22;669;50.206;9.998;2023-12-14T08:55:05;5.40;56.60
1351;DHT22;669;50.206;9.998;2023-12-14T08:57:34;5.50;56.70
1351;DHT22;669;50.206;9.998;2023-12-14T09:00:03;5.50;56.70
1351;DHT22;669;50.206;9.998;2023-12-14T09:02:33;5.50;56.70
1351;DHT22;669;50.206;9.998;2023-12-14T09:05:01;5.60;56.80
1351;DHT22;669;50.206;9.998;2023-12-14T09:07:31;5.50;56.70
1351;DHT22;669;50.206;9.998;2023-12-14T09:09:59;5.60;56.80
1351;DHT22;669;50.206;9.998;2023-12-14T09:12:27;5.60;56.80
1351;DHT22;669;50.206;9.998;2023-12-14T09:14:55;5.60;56.80
1351;DHT22;669;50.206;9.998;2023-12-14T09:17:23;5.60;56.80
1351;DHT22;669;50.206;9.998;2023-12-14T09:19:52;5.60;56.80
1351;DHT22;669;50.206;9.998;2023-12-14T09:22:20;5.70;56.80
1351;DHT22;669;50.206;9.998;2023-12-14T09:24:48;5.70;56.90
1351;DHT22;669;50.206;9.998;2023-12-14T09:27:16;5.70;56.90
1351;DHT22;669;50.206;9.998;2023-12-14T09:29:44;5.80;57.00
1351;DHT22;669;50.206;9.998;2023-12-14T09:32:12;5.80;57.00
1351;DHT22;669;50.206;9.998;2023-12-14T09:34:40;5.80;57.00
1351;DHT22;669;50.206;9.998;2023-12-14T09:37:09;5.90;57.00
1351;DHT22;669;50.206;9.998;2023-12-14T09:39:38;5.90;57.00
1351;DHT22;669;50.206;9.998;2023-12-14T09:42:08;5.90;57.00
1351;DHT22;669;50.206;9.998;2023-12-14T09:44:37;5.90;57.00
1351;DHT22;669;50.206;9.998;2023-12-14T09:47:05;6.00;57.10
1351;DHT22;669;50.206;9.998;2023-12-14T09:49:35;6.00;57.10
1351;DHT22;669;50.206;9.998;2023-12-14T09:52:03;6.00;57.10
1351;DHT22;669;50.206;9.998;2023-12-14T09:54:33;6.10;57.90
1351;DHT22;669;50.206;9.998;2023-12-14T09:57:01;6.10;57.20
1351;DHT22;669;50.206;9.998;2023-12-14T09:59:28;6.10;57.00
1351;DHT22;669;50.206;9.998;2023-12-14T10:02:09;6.10;57.20
1351;DHT22;669;50.206;9.998;2023-12-14T10:04:37;6.10;56.90
1351;DHT22;669;50.206;9.998;2023-12-14T10:07:05;6.20;57.20
1351;DHT22;669;50.206;9.998;2023-12-14T10:09:37;6.30;58.10
1351;DHT22;669;50.206;9.998;2023-12-14T10:12:06;6.30;57.30
1351;DHT22;669;50.206;9.998;2023-12-14T10:14:36;6.40;57.30
1351;DHT22;669;50.206;9.998;2023-12-14T10:17:16;6.40;56.90
1351;DHT22;669;50.206;9.998;2023-12-14T10:19:45;6.50;56.60
1351;DHT22;669;50.206;9.998;2023-12-14T10:22:15;6.50;55.80
1351;DHT22;669;50.206;9.998;2023-12-14T10:24:46;6.50;55.80
1351;DHT22;669;50.206;9.998;2023-12-14T10:27:15;6.40;55.50
1351;DHT22;669;50.206;9.998;2023-12-14T10:29:43;6.40;55.10
1351;DHT22;669;50.206;9.998;2023-12-14T10:32:13;6.40;55.20
1351;DHT22;669;50.206;9.998;2023-12-14T10:34:41;6.50;55.20
1351;DHT22;669;50.206;9.998;2023-12-14T10:37:10;6.50;55.10
1351;DHT22;669;50.206;9.998;2023-12-14T10:39:42;6.50;54.60
1351;DHT22;669;50.206;9.998;2023-12-14T10:42:13;6.50;54.40
1351;DHT22;669;50.206;9.998;2023-12-14T10:44:49;6.60;54.40
1351;DHT22;669;50.206;9.998;2023-12-14T10:47:21;6.50;54.10
1351;DHT22;669;50.206;9.998;2023-12-14T10:49:51;6.60;54.10
1351;DHT22;669;50.206;9.998;2023-12-14T10:52:20;6.60;54.00
1351;DHT22;669;50.206;9.998;2023-12-14T10:54:53;6.60;53.90
1351;DHT22;669;50.206;9.998;2023-12-14T10:57:25;6.60;54.00
1351;DHT22;669;50.206;9.998;2023-12-14T10:59:57;6.60;53.60
1351;DHT22;669;50.206;9.998;2023-12-14T11:02:26;6.60;53.20
1351;DHT22;669;50.206;9.998;2023-12-14T11:04:55;6.60;53.10
1351;DHT22;669;50.206;9.998;2023-12-14T11:07:44;6.60;53.10
1351;DHT22;669;50.206;9.998;2023-12-14T11:10:12;6.50;52.80
1351;DHT22;669;50.206;9.998;2023-12-14T11:12:54;6.60;52.80
1351;DHT22;669;50.206;9.998;2023-12-14T11:15:24;6.50;52.20
1351;DHT22;669;50.206;9.998;2023-12-14T11:18:23;6.50;51.90
1351;DHT22;669;50.206;9.998;2023-12-14T11:20:58;6.50;51.80
1351;DHT22;669;50.206;9.998;2023-12-14T11:23:35;6.50;49.50
1351;DHT22;669;50.206;9.998;2023-12-14T11:26:04;6.40;49.10
1351;DHT22;669;50.206;9.998;2023-12-14T11:28:35;6.40;47.70
1351;DHT22;669;50.206;9.998;2023-12-14T11:31:04;6.40;47.80
1351;DHT22;669;50.206;9.998;2023-12-14T11:33:34;6.40;46.90
1351;DHT22;669;50.206;9.998;2023-12-14T11:36:11;6.40;46.20
1351;DHT22;669;50.206;9.998;2023-12-14T11:38:40;6.50;44.90
1351;DHT22;669;50.206;9.998;2023-12-14T11:41:08;6.50;43.20
1351;DHT22;669;50.206;9.998;2023-12-14T11:43:41;6.50;42.90
1351;DHT22;669;50.206;9.998;2023-12-14T11:46:09;6.50;40.20
1351;DHT22;669;50.206;9.998;2023-12-14T11:48:37;6.40;39.10
1351;DHT22;669;50.206;9.998;2023-12-14T11:51:06;6.40;37.80
1351;DHT22;669;50.206;9.998;2023-12-14T11:53:35;6.40;37.20
1351;DHT22;669;50.206;9.998;2023-12-14T11:56:06;6.30;37.90
1351;DHT22;669;50.206;9.998;2023-12-14T11:58:34;6.30;38.50
1351;DHT22;669;50.206;9.998;2023-12-14T12:01:15;6.30;39.00
1351;DHT22;669;50.206;9.998;2023-12-14T12:03:44;6.30;39.60
1351;DHT22;669;50.206;9.998;2023-12-14T12:06:23;6.30;39.90
1351;DHT22;669;50.206;9.998;2023-12-14T12:08:51;6.30;39.90
1351;DHT22;669;50.206;9.998;2023-12-14T12:11:21;6.30;40.10
1351;DHT22;669;50.206;9.998;2023-12-14T12:13:53;6.30;40.80
1351;DHT22;669;50.206;9.998;2023-12-14T12:16:22;6.40;40.30
1351;DHT22;669;50.206;9.998;2023-12-14T12:18:52;6.40;40.30
1351;DHT22;669;50.206;9.998;2023-12-14T12:21:20;6.50;39.20
1351;DHT22;669;50.206;9.998;2023-12-14T12:23:48;6.40;37.80
1351;DHT22;669;50.206;9.998;2023-12-14T12:26:16;6.50;36.60
1351;DHT22;669;50.206;9.998;2023-12-14T12:28:44;6.50;35.60
1351;DHT22;669;50.206;9.998;2023-12-14T12:31:15;6.60;35.00
1351;DHT22;669;50.206;9.998;2023-12-14T12:33:44;6.70;35.70
1351;DHT22;669;50.206;9.998;2023-12-14T12:36:12;6.80;34.10
1351;DHT22;669;50.206;9.998;2023-12-14T12:38:40;6.90;33.70
1351;DHT22;669;50.206;9.998;2023-12-14T12:41:08;7.00;33.50
1351;DHT22;669;50.206;9.998;2023-12-14T12:43:36;7.10;33.70
1351;DHT22;669;50.206;9.998;2023-12-14T12:46:12;7.20;30.10
1351;DHT22;669;50.206;9.998;2023-12-14T12:48:40;7.30;27.10
1351;DHT22;669;50.206;9.998;2023-12-14T12:51:08;7.30;26.10
1351;DHT22;669;50.206;9.998;2023-12-14T12:53:36;7.40;26.00
1351;DHT22;669;50.206;9.998;2023-12-14T12:56:04;7.50;26.70
1351;DHT22;669;50.206;9.998;2023-12-14T12:58:32;7.60;23.90
1351;DHT22;669;50.206;9.998;2023-12-14T13:01:00;7.60;23.00
1351;DHT22;669;50.206;9.998;2023-12-14T13:03:30;7.60;23.70
1351;DHT22;669;50.206;9.998;2023-12-14T13:05:58;7.60;23.40
1351;DHT22;669;50.206;9.998;2023-12-14T13:08:26;7.60;22.90
1351;DHT22;669;50.206;9.998;2023-12-14T13:10:54;7.60;24.00
1351;DHT22;669;50.206;9.998;2023-12-14T13:13:22;7.60;23.40
1351;DHT22;669;50.206;9.998;2023-12-14T13:15:50;7.50;22.80
1351;DHT22;669;50.206;9.998;2023-12-14T13:18:18;7.50;21.60
1351;DHT22;669;50.206;9.998;2023-12-14T13:20:47;7.40;21.00
1351;DHT22;669;50.206;9.998;2023-12-14T13:23:15;7.40;20.80
1351;DHT22;669;50.206;9.998;2023-12-14T13:25:44;7.30;20.70
1351;DHT22;669;50.206;9.998;2023-12-14T13:28:12;7.10;20.40
1351;DHT22;669;50.206;9.998;2023-12-14T13:30:43;7.10;21.50
1351;DHT22;669;50.206;9.998;2023-12-14T13:33:12;7.00;20.70
1351;DHT22;669;50.206;9.998;2023-12-14T13:35:40;6.90;20.00
1351;DHT22;669;50.206;9.998;2023-12-14T13:38:09;6.90;20.80
1351;DHT22;669;50.206;9.998;2023-12-14T13:40:37;6.80;20.70
1351;DHT22;669;50.206;9.998;2023-12-14T13:43:05;6.80;21.50
1351;DHT22;669;50.206;9.998;2023-12-14T13:45:37;6.70;22.00
1351;DHT22;669;50.206;9.998;2023-12-14T13:48:05;6.70;22.30
1351;DHT22;669;50.206;9.998;2023-12-14T13:50:35;6.70;23.30
1351;DHT22;669;50.206;9.998;2023-12-14T13:53:03;6.60;23.80
1351;DHT22;669;50.206;9.998;2023-12-14T13:55:33;6.60;23.50
1351;DHT22;669;50.206;9.998;2023-12-14T13:58:01;6.60;23.70
1351;DHT22;669;50.206;9.998;2023-12-14T14:00:29;6.50;23.40
1351;DHT22;669;50.206;9.998;2023-12-14T14:02:59;6.50;22.80
1351;DHT22;669;50.206;9.998;2023-12-14T14:05:27;6.40;22.20
1351;DHT22;669;50.206;9.998;2023-12-14T14:07:55;6.40;22.80
1351;DHT22;669;50.206;9.998;2023-12-14T14:10:23;6.40;23.70
1351;DHT22;669;50.206;9.998;2023-12-14T14:12:52;6.40;23.30
1351;DHT22;669;50.206;9.998;2023-12-14T14:15:20;6.40;24.40
1351;DHT22;669;50.206;9.998;2023-12-14T14:17:48;6.40;24.10
1351;DHT22;669;50.206;9.998;2023-12-14T14:20:20;6.40;24.20
1351;DHT22;669;50.206;9.998;2023-12-14T14:22:49;6.40;24.20
1351;DHT22;669;50.206;9.998;2023-12-14T14:25:17;6.30;24.30
1351;DHT22;669;50.206;9.998;2023-12-14T14:27:45;6.30;24.00
1351;DHT22;669;50.206;9.998;2023-12-14T14:30:15;6.20;24.20
1351;DHT22;669;50.206;9.998;2023-12-14T14:32:44;6.20;24.40
1351;DHT22;669;50.206;9.998;2023-12-14T14:35:12;6.20;24.70
1351;DHT22;669;50.206;9.998;2023-12-14T14:37:41;6.20;24.80
1351;DHT22;669;50.206;9.998;2023-12-14T14:40:13;6.10;25.00
1351;DHT22;669;50.206;9.998;2023-12-14T14:42:41;6.10;24.60
1351;DHT22;669;50.206;9.998;2023-12-14T14:45:10;6.10;24.60
1351;DHT22;669;50.206;9.998;2023-12-14T14:47:41;6.10;24.70
1351;DHT22;669;50.206;9.998;2023-12-14T14:50:09;6.00;24.30
1351;DHT22;669;50.206;9.998;2023-12-14T14:52:38;6.00;24.70
1351;DHT22;669;50.206;9.998;2023-12-14T14:55:07;6.00;24.70
1351;DHT22;669;50.206;9.998;2023-12-14T14:57:35;5.90;25.60
1351;DHT22;669;50.206;9.998;2023-12-14T15:00:04;5.90;25.10
1351;DHT22;669;50.206;9.998;2023-12-14T15:02:32;5.90;25.30
1351;DHT22;669;50.206;9.998;2023-12-14T15:05:02;5.90;25.80
1351;DHT22;669;50.206;9.998;2023-12-14T15:07:30;5.80;25.80
1351;DHT22;669;50.206;9.998;2023-12-14T15:09:58;5.80;26.20
1351;DHT22;669;50.206;9.998;2023-12-14T15:12:26;5.80;26.20
1351;DHT22;669;50.206;9.998;2023-12-14T15:14:54;5.80;25.60
1351;DHT22;669;50.206;9.998;2023-12-14T15:17:22;5.70;24.90
1351;DHT22;669;50.206;9.998;2023-12-14T15:19:50;5.70;25.20
1351;DHT22;669;50.206;9.998;2023-12-14T15:22:20;5.70;25.50
1351;DHT22;669;50.206;9.998;2023-12-14T15:24:48;5.70;25.20
1351;DHT22;669;50.206;9.998;2023-12-14T15:27:16;5.60;25.00
1351;DHT22;669;50.206;9.998;2023-12-14T15:29:44;5.50;22.50
1351;DHT22;669;50.206;9.998;2023-12-14T15:32:11;5.50;23.80
1351;DHT22;669;50.206;9.998;2023-12-14T15:34:41;5.40;23.50
1351;DHT22;669;50.206;9.998;2023-12-14T15:37:09;5.40;23.60
1351;DHT22;669;50.206;9.998;2023-12-14T15:39:39;5.30;23.80
1351;DHT22;669;50.206;9.998;2023-12-14T15:42:07;5.30;23.90
1351;DHT22;669;50.206;9.998;2023-12-14T15:44:35;5.30;24.00
1351;DHT22;669;50.206;9.998;2023-12-14T15:47:03;5.20;24.30
1351;DHT22;669;50.206;9.998;2023-12-14T15:49:31;5.20;24.40
1351;DHT22;669;50.206;9.998;2023-12-14T15:51:59;5.20;24.70
1351;DHT22;669;50.206;9.998;2023-12-14T15:54:27;5.10;24.70
1351;DHT22;669;50.206;9.998;2023-12-14T15:56:56;5.00;24.60
1351;DHT22;669;50.206;9.998;2023-12-14T15:59:25;5.00;24.70
1351;DHT22;669;50.206;9.998;2023-12-14T16:01:54;5.00;24.60
1351;DHT22;669;50.206;9.998;2023-12-14T16:04:22;5.00;24.90
1351;DHT22;669;50.206;9.998;2023-12-14T16:06:50;5.00;24.70
1351;DHT22;669;50.206;9.998;2023-12-14T16:09:18;4.90;24.50
1351;DHT22;669;50.206;9.998;2023-12-14T16:11:46;4.90;24.70
1351;DHT22;669;50.206;9.998;2023-12-14T16:14:15;4.90;24.40
1351;DHT22;669;50.206;9.998;2023-12-14T16:16:43;4.80;24.90
1351;DHT22;669;50.206;9.998;2023-12-14T16:19:11;4.80;24.90
1351;DHT22;669;50.206;9.998;2023-12-14T16:21:39;4.70;25.10
1351;DHT22;669;50.206;9.998;2023-12-14T16:24:08;4.70;25.30
1351;DHT22;669;50.206;9.998;2023-12-14T16:26:35;4.60;25.40
1351;DHT22;669;50.206;9.998;2023-12-14T16:29:06;4.60;25.70
1351;DHT22;669;50.206;9.998;2023-12-14T16:31:41;4.60;25.90
1351;DHT22;669;50.206;9.998;2023-12-14T16:34:09;4.60;26.30
1351;DHT22;669;50.206;9.998;2023-12-14T16:36:37;4.60;26.20
1351;DHT22;669;50.206;9.998;2023-12-14T16:39:05;4.50;26.70
1351;DHT22;669;50.206;9.998;2023-12-14T16:41:36;4.50;26.80
1351;DHT22;669;50.206;9.998;2023-12-14T16:44:04;4.40;27.10